Flight Track Log - Related Links

Times and Time Zones

All times are in EDT time to prevent confusion due to time zone crossing. See the N939TW flight status page for this flight to view local times or setup timezone preferences in your user account.


Time Position Orientation Groundspeed Altitude Reporting Facility
EDT Latitude Longitude Course Direction KTS MPH feet Rate Location/Type
Sat 08:07:34 AM 30.0028 -90.3081 285° West 189 217 2,500  Level Houston Center
Sat 08:08:18 AM 30.0233 -90.3275 321° Northwest 190 219 5,100 3,657 Climbing Houston Center
Sat 08:09:19 AM 30.0467 -90.2661 66° East 252 290 8,900 3,719 Climbing Houston Center
Sat 08:10:19 AM 30.0425 -90.1539 92° East 294 338 12,600 3,273 Climbing Houston Center
Sat 08:11:20 AM 30.0400 -90.0517 92° East 317 365 15,500 2,459 Climbing Houston Center
Sat 08:12:21 AM 30.0539 -89.9433 82° East 351 404 17,600 1,967 Climbing Houston Center
Sat 08:13:22 AM 30.0839 -89.8353 72° East 358 412 19,500 1,967 Climbing Houston Center
Sat 08:14:23 AM 30.1003 -89.7167 81° East 382 440 21,600 1,967 Climbing Houston Center
Sat 08:15:24 AM 30.1147 -89.5936 82° East 391 450 23,500 1,918 Climbing Houston Center
Sat 08:16:25 AM 30.1092 -89.4653 93° East 408 470 25,500 1,967 Climbing Houston Center
Sat 08:17:26 AM 30.1053 -89.3350 92° East 407 468 27,500 1,869 Climbing Houston Center
Sat 08:18:27 AM 30.1014 -89.2042 92° East 412 474 29,300 1,820 Climbing Houston Center
Sat 08:19:28 AM 30.0958 -89.0453 92° East 415 478 31,200 1,672 Climbing Houston Center
Sat 08:20:29 AM 30.0908 -88.9117 92° East 418 481 32,700 1,426 Climbing Houston Center
Sat 08:21:30 AM 30.0864 -88.7767 92° East 422 486 34,100 1,180 Climbing Houston Center
Sat 08:22:31 AM 30.0803 -88.6381 93° East 427 491 35,100 927 Climbing Houston Center
Sat 08:23:33 AM 30.0753 -88.4964 92° East 441 507 36,000 878 Climbing Houston Center
Sat 08:24:34 AM 30.0692 -88.3511 93° East 454 522 36,900 885 Climbing Houston Center
Sat 08:25:35 AM 30.0633 -88.2036 93° East 461 531 37,800 836 Climbing Houston Center
Sat 08:26:36 AM 30.0581 -88.0567 92° East 461 531 38,600 590 Climbing Houston Center
Sat 08:27:37 AM 30.0519 -87.9092 93° East 462 532 39,000 197 Climbing Houston Center
Sat 08:28:38 AM 30.0450 -87.7592 93° East 468 539 39,000  Level Houston Center
Sat 08:29:39 AM 30.0378 -87.5747 93° East 479 551 39,000  Level Houston Center
Sat 08:30:40 AM 30.0306 -87.4203 93° East 485 558 39,000  Level Houston Center
Sat 08:31:42 AM 30.0244 -87.2733 93° East 489 563 39,000  Level Houston Center
Sat 08:32:43 AM 30.0172 -87.1164 93° East 492 566 39,000  Level Houston Center
Sat 08:33:44 AM 30.0089 -86.9608 94° East 488 562 39,000  Level Houston Center
Sat 08:34:45 AM 30.0019 -86.8050 93° East 488 562 39,000  Level Houston Center
Sat 08:35:47 AM 29.9933 -86.6503 94° East 486 559 39,000  Level Houston Center
Sat 08:36:55 AM 29.9828 -86.4581 94° East 481 554 39,000  Level Jacksonville Center
Sat 08:37:55 AM 29.9744 -86.3069 94° East 481 554 39,000  Level Jacksonville Center
Sat 08:38:55 AM 29.9661 -86.1531 94° East 481 554 39,000  Level Jacksonville Center
Sat 08:39:55 AM 29.9572 -85.9969 94° East 481 554 39,000  Level Jacksonville Center
Sat 08:40:55 AM 29.9464 -85.8456 95° East 481 554 39,000  Level Jacksonville Center
Sat 08:41:55 AM 29.9350 -85.6944 95° East 481 554 39,000  Level Jacksonville Center
Sat 08:42:55 AM 29.9261 -85.5239 93° East 481 554 39,000  Level Jacksonville Center
Sat 08:43:55 AM 29.9189 -85.3753 93° East 476 548 39,000 -250 Level Jacksonville Center
Sat 08:44:55 AM 29.9089 -85.2289 94° East 470 541 38,500 -1,400 Descending Jacksonville Center
Sat 08:45:55 AM 29.9011 -85.0800 93° East 464 534 36,200 -2,250 Descending Jacksonville Center
Sat 08:46:55 AM 29.8892 -84.9264 95° East 464 534 34,000 -2,200 Descending Jacksonville Center
Sat 08:47:55 AM 29.8789 -84.7706 94° East 474 545 31,800 -2,200 Descending Jacksonville Center
Sat 08:48:55 AM 29.8706 -84.6194 94° East 479 551 29,600 -2,250 Descending Jacksonville Center
Sat 08:49:55 AM 29.8581 -84.4756 96° East 474 545 27,300 -2,400 Descending Jacksonville Center
Sat 08:50:55 AM 29.8511 -84.3367 93° East 451 519 24,800 -1,750 Descending Jacksonville Center
Sat 08:51:55 AM 29.8400 -84.2094 96° East 421 484 23,800 -850 Descending Jacksonville Center
Sat 08:52:55 AM 29.8331 -84.0825 94° East 403 464 23,100 -400 Descending Jacksonville Center
Sat 08:53:55 AM 29.8236 -83.9531 95° East 398 458 23,000 -50 Descending Jacksonville Center
Sat 08:54:55 AM 29.8142 -83.8239 95° East 403 464 23,000  Level Jacksonville Center
Sat 08:55:55 AM 29.8025 -83.6944 96° East 403 464 23,000 -50 Level Jacksonville Center
Sat 08:56:55 AM 29.7950 -83.5675 94° East 408 470 22,900 -950 Descending Jacksonville Center
Sat 08:57:55 AM 29.7850 -83.4453 95° East 396 456 21,100 -2,250 Descending Jacksonville Center
Sat 08:58:55 AM 29.7753 -83.3233 95° East 390 449 18,400 -2,917 Descending Jacksonville Center
Sat 08:59:44 AM 29.7672 -83.2275 96° East 373 429 15,800 -3,176 Descending Jacksonville Center
Sat 09:00:20 AM 29.7611 -83.1581 96° East 360 414 13,900 -2,958 Descending Jacksonville Center
Sat 09:00:55 AM 29.7589 -83.0958 92° East 366 421 12,300 -2,557 Descending Jacksonville Center
Sat 09:01:21 AM 29.7508 -83.0553 103° East 315 362 11,300 -1,300 Descending Jacksonville Center
Sat 09:01:55 AM 29.7508 -83.0050 90° East 335 386 11,000 -295 Descending Jacksonville Center
Sat 09:02:22 AM 29.7467 -82.9692 98° East 252 290 11,000 -500 Level Jacksonville Center
Sat 09:02:55 AM 29.7383 -82.9261 103° East 263 303 10,500 -1,377 Descending Jacksonville Center
Sat 09:03:23 AM 29.7258 -82.8903 112° Southeast 263 303 9,600 -2,100 Descending Jacksonville Center
Sat 09:03:55 AM 29.7175 -82.8400 101° East 263 303 8,400 -2,300 Descending Jacksonville Center
Sat 09:04:23 AM 29.7050 -82.8089 115° Southeast 269 310 7,300 -2,000 Descending Jacksonville Center
Sat 09:04:55 AM 29.7047 -82.7706 90° East 263 303 6,400 -2,328 Descending Jacksonville Center
Sat 09:05:30 AM 29.7131 -82.7206 79° East 233 268 4,700 -2,200 Descending Jacksonville Center
Sat 09:05:55 AM 29.7131 -82.6964 90° East 244 281 4,200 -1,279 Descending Jacksonville Center
Sat 09:06:31 AM 29.7172 -82.6558 83° East 190 219 3,400 -1,000 Descending Jacksonville Center
Sat 09:06:55 AM 29.7192 -82.6367 83° East 216 249 3,200 -295 Descending Jacksonville Center
Sat 09:07:32 AM 29.7192 -82.5983 90° East 170 196 3,100 -100 Descending Jacksonville Center
Sat 09:07:55 AM 29.7233 -82.5769 77° East 191 220 3,100  Level Jacksonville Center
Sat 09:08:33 AM 29.7253 -82.5411 86° East 184 212 3,100  Level Jacksonville Center
Sat 09:08:55 AM 29.7253 -82.5219 90° East 180 207 3,100  Level Jacksonville Center
Sat 09:09:34 AM 29.7250 -82.4789 90° East 179 206 3,100 -667 Level Jacksonville Center
Sat 09:10:34 AM 29.7167 -82.4333 102° East 145 167 2,000 -645 Descending Jacksonville Center
Sat 09:11:35 AM 29.7081 -82.3928 104° East 127 146 1,800 -246 Descending Jacksonville Center
Sat 09:12:36 AM 29.7017 -82.3569 102° East 105 121 1,500 -590 Descending Jacksonville Center
Sat 09:13:37 AM 29.6975 -82.3258 99° East 99 114 600 -885 Descending Jacksonville Center
Sat 09:15:00 AM 29.6833 -82.2667 90° East  Level FlightAware Approximate
Sat 09:22:00 AM 29.6901 -82.2718 90° East  Level Estimated

Login

Don't have an account? Register now (free) for customized features, flight alerts, and more!